Main page
METAR-TAF:

METAR-TAF

Airports :

Harriman-and-West Airport

North Adams, Massachusetts, United States

latitude: 42-41-50N, longitude: 073-10-13W, elevation: 653 ft

Current weather observation

The report was made 39 minutes ago, at 17:52 UTC
Wind 16 mph from the West with gusts up to 36 mph
Temperature 30°F
Humidity 69%
Pressure 29.41 in. Hg
Visibility: 7 miles
Scattered clouds at a height of 2700 ft
Broken clouds at a height of 3800 ft
Overcast at a height of 5000 ft
light snow

METAR: KAQW 271752Z AUTO 27014G31KT 7SM -SN SCT027 BKN038 OVC050 M01/M06 A2941 RMK AO2 PK WND 26031/1744 SLP964 P0000 60017 T10111061 10061 21011 51016

Time: 13:31 (18:31 UTC)


TAF: missing

Weather observations and forecasts of more than 4000 airports (METAR and TAF reports).

The available stations are represented by yellow and red dots on the map.

Hover mouse over dot to see the name of the station.

Then click to see weather observations and forecasts.

To change the map : click on the green buttons with a black cross to zoom in, on the green button with a dash to zoom out, or on the green arrows for adjacent maps.


METAR-TAF: